Time;durP1;ratioP1;P1;durP2;ratioP2;P2;SDS_P1;SDS_P2;PMS_P1;PMS_P2;Temp;Humidity;BMP_temperature;BMP_pressure;BME280_temperature;BME280_humidity;BME280_pressure;Samples;Min_cycle;Max_cycle;Signal;HPM_P1;HPM_P2
2022/08/06 00:02:28;;;;;;;;;;;;;;;22.39;55.80;101026.99;1616740;87;20117;-74
2022/08/06 00:04:55;;;;;;;;;;;;;;;22.38;55.87;101034.52;1618013;87;20111;-73
2022/08/06 00:07:21;;;;;;;;;;;;;;;22.36;56.14;101028.02;1617597;87;20093;-74
2022/08/06 00:09:47;;;;;;;;;;;;;;;22.27;55.66;101026.42;1605986;87;20146;-73
2022/08/06 00:12:13;;;;;;;;;;;;;;;22.19;55.82;101028.65;1621744;87;20145;-73
2022/08/06 00:14:40;;;;;;;;;;;;;;;22.17;55.81;101035.32;1614994;87;20137;-74
2022/08/06 00:17:06;;;;;;;;;;;;;;;22.11;56.04;101039.16;1616579;87;20109;-74
2022/08/06 00:19:32;;;;;;;;;;;;;;;22.07;55.65;101042.05;1616476;87;20105;-73
2022/08/06 00:21:58;;;;;;;;;;;;;;;22.03;55.88;101041.38;1618855;87;20138;-73
2022/08/06 00:24:24;;;;;;;;;;;;;;;22.01;55.98;101045.00;1615096;87;20563;-73
2022/08/06 00:26:51;;;;;;;;;;;;;;;21.99;56.15;101054.77;1614097;87;20146;-74
2022/08/06 00:29:17;;;;;;;;;;;;;;;21.96;56.18;101059.74;1624345;85;20099;-74
2022/08/06 00:31:43;;;;;;;;;;;;;;;21.94;56.01;101062.08;1649907;85;20135;-74
2022/08/06 00:34:09;;;;;;;;;;;;;;;21.86;55.93;101077.45;1651019;85;20111;-73
2022/08/06 00:36:35;;;;;;;;;;;;;;;21.75;57.18;101071.03;1649813;85;20127;-73
2022/08/06 00:39:04;;;;;;;;;;;;;;;21.65;56.38;101073.78;1649483;85;20111;-73
2022/08/06 00:41:31;;;;;;;;;;;;;;;21.64;56.79;101071.23;1651972;85;20749;-73
2022/08/06 00:43:59;;;;;;;;;;;;;;;21.59;56.39;101073.27;1649925;85;20101;-74
2022/08/06 00:46:25;;;;;;;;;;;;;;;21.53;56.44;101080.17;1611089;87;20131;-73
2022/08/06 00:48:52;;;;;;;;;;;;;;;21.43;56.16;101082.45;1567170;90;20717;-73
2022/08/06 00:51:18;;;;;;;;;;;;;;;21.33;56.46;101076.83;1616973;87;20115;-74
2022/08/06 00:53:44;;;;;;;;;;;;;;;21.33;56.56;101102.28;1616913;87;20115;-73
2022/08/06 00:56:10;;;;;;;;;;;;;;;21.29;56.24;101099.47;1625875;86;20104;-73
2022/08/06 00:58:37;;;;;;;;;;;;;;;21.21;56.38;101109.08;1611152;87;20102;-74
2022/08/06 01:01:03;;;;;;;;;;;;;;;21.16;56.62;101116.32;1584196;89;20118;-74
2022/08/06 01:03:29;;;;;;;;;;;;;;;21.11;56.64;101127.54;1590278;89;20096;-73
2022/08/06 01:05:55;;;;;;;;;;;;;;;21.09;56.57;101128.08;1586819;88;20104;-74
2022/08/06 01:08:21;;;;;;;;;;;;;;;21.07;56.61;101123.37;1610469;87;20452;-74
2022/08/06 01:10:47;;;;;;;;;;;;;;;21.05;56.47;101120.81;1610948;87;20110;-73
2022/08/06 01:13:14;;;;;;;;;;;;;;;21.02;56.58;101115.72;1618715;87;20128;-72
2022/08/06 01:15:42;;;;;;;;;;;;;;;21.00;56.62;101122.83;1628569;87;20108;-72
2022/08/06 01:18:10;;;;;;;;;;;;;;;20.96;56.70;101128.32;1620402;87;20178;-73
2022/08/06 01:20:40;;;;;;;;;;;;;;;20.94;56.74;101128.86;1614462;87;20487;-73
2022/08/06 01:23:25;;;;;;;;;;;;;;;20.93;56.81;101133.27;1619661;87;20132;-72
2022/08/06 01:26:27;;;;;;;;;;;;;;;20.91;56.81;101143.48;1619422;87;20111;-73
2022/08/06 01:29:09;;;;;;;;;;;;;;;20.85;57.51;101128.86;1616911;87;20141;-74
2022/08/06 01:31:38;;;;;;;;;;;;;;;20.81;56.74;101143.94;1608777;88;20108;-73
2022/08/06 01:34:10;;;;;;;;;;;;;;;20.77;56.94;101135.00;1603466;88;20136;-73
2022/08/06 01:36:40;;;;;;;;;;;;;;;20.75;56.90;101136.39;1598915;88;20126;-73
2022/08/06 01:39:06;;;;;;;;;;;;;;;20.73;56.81;101136.08;1602602;88;20114;-73
2022/08/06 01:41:39;;;;;;;;;;;;;;;20.70;56.78;101142.34;1602532;88;20095;-73
2022/08/06 01:44:13;;;;;;;;;;;;;;;20.66;57.00;101143.88;1603055;88;20102;-73
2022/08/06 01:46:43;;;;;;;;;;;;;;;20.61;56.85;101150.67;1606152;87;20110;-73
2022/08/06 01:49:10;;;;;;;;;;;;;;;20.58;56.87;101156.08;1601765;88;20134;-73
2022/08/06 01:51:37;;;;;;;;;;;;;;;20.59;56.91;101165.66;1601176;88;20130;-73
2022/08/06 01:54:06;;;;;;;;;;;;;;;20.58;56.94;101162.65;1603195;88;20114;-73
2022/08/06 01:56:35;;;;;;;;;;;;;;;20.62;57.11;101168.14;1603686;88;20102;-74
2022/08/06 01:59:03;;;;;;;;;;;;;;;20.63;57.10;101164.59;1603186;88;20098;-73
2022/08/06 02:01:31;;;;;;;;;;;;;;;20.66;57.13;101168.84;1608063;88;20457;-73
2022/08/06 02:03:58;;;;;;;;;;;;;;;20.65;57.28;101183.77;1603577;88;20114;-73
2022/08/06 02:06:30;;;;;;;;;;;;;;;20.61;57.11;101190.55;1607571;88;20119;-73
2022/08/06 02:08:59;;;;;;;;;;;;;;;20.60;57.16;101185.77;1597424;88;20850;-72
2022/08/06 02:11:25;;;;;;;;;;;;;;;20.57;57.08;101174.55;1585729;89;20442;-72
2022/08/06 02:13:51;;;;;;;;;;;;;;;20.53;57.27;101166.42;1611610;88;20165;-73
2022/08/06 02:16:18;;;;;;;;;;;;;;;20.47;57.16;101159.69;1604389;88;20114;-73
2022/08/06 02:18:46;;;;;;;;;;;;;;;20.42;57.29;101153.80;1610891;88;20118;-73
2022/08/06 02:21:17;;;;;;;;;;;;;;;20.41;56.95;101152.10;1610474;88;20548;-73
2022/08/06 02:23:44;;;;;;;;;;;;;;;20.38;57.15;101150.47;1607841;88;20112;-73
2022/08/06 02:26:10;;;;;;;;;;;;;;;20.35;57.27;101154.98;1608630;88;20146;-73
2022/08/06 02:28:37;;;;;;;;;;;;;;;20.27;57.33;101152.77;1607188;88;20106;-73
2022/08/06 02:31:04;;;;;;;;;;;;;;;20.27;57.09;101158.02;1611315;86;20103;-73
2022/08/06 02:33:32;;;;;;;;;;;;;;;20.21;57.25;101154.36;1613542;87;20112;-73
2022/08/06 02:36:01;;;;;;;;;;;;;;;20.22;57.34;101161.78;1614637;87;20116;-73
2022/08/06 02:38:43;;;;;;;;;;;;;;;20.19;57.20;101143.08;1620483;87;20103;-73
2022/08/06 02:41:18;;;;;;;;;;;;;;;20.18;57.28;101142.69;1663169;85;20115;-73
2022/08/06 02:43:50;;;;;;;;;;;;;;;20.13;57.24;101149.47;1658035;85;20156;-73
2022/08/06 02:46:25;;;;;;;;;;;;;;;20.06;57.43;101159.88;1651682;85;20190;-73
2022/08/06 02:48:58;;;;;;;;;;;;;;;20.00;57.38;101157.53;1650772;85;20202;-73
2022/08/06 02:51:27;;;;;;;;;;;;;;;19.94;57.68;101155.65;1620621;87;20218;-72
2022/08/06 02:53:59;;;;;;;;;;;;;;;19.90;57.47;101177.70;1583034;87;20240;-72
2022/08/06 02:56:27;;;;;;;;;;;;;;;19.88;57.58;101188.73;1633558;86;20189;-72
2022/08/06 02:58:54;;;;;;;;;;;;;;;19.83;57.45;101196.36;1616347;87;20197;-72
2022/08/06 03:01:29;;;;;;;;;;;;;;;19.77;57.53;101199.72;1662135;85;20195;-72
2022/08/06 03:03:58;;;;;;;;;;;;;;;19.74;57.49;101219.56;1659713;85;20530;-72
2022/08/06 03:06:26;;;;;;;;;;;;;;;19.70;57.83;101211.44;1657100;85;20137;-73
2022/08/06 03:08:56;;;;;;;;;;;;;;;19.65;57.67;101223.91;1663123;85;20129;-73
2022/08/06 03:11:23;;;;;;;;;;;;;;;19.65;57.55;101230.01;1619640;87;20140;-74
2022/08/06 03:13:51;;;;;;;;;;;;;;;19.65;57.65;101230.01;1641925;85;20109;-73
2022/08/06 03:16:18;;;;;;;;;;;;;;;19.60;57.66;101218.86;1627805;86;20440;-73
2022/08/06 03:18:45;;;;;;;;;;;;;;;19.54;57.71;101220.44;1629753;86;20780;-73
2022/08/06 03:21:12;;;;;;;;;;;;;;;19.49;57.82;101228.47;1628548;87;20149;-73
2022/08/06 03:23:38;;;;;;;;;;;;;;;19.50;57.74;101229.33;1660501;85;20114;-74
2022/08/06 03:26:05;;;;;;;;;;;;;;;19.51;57.87;101228.44;1655050;85;20135;-73
2022/08/06 03:28:33;;;;;;;;;;;;;;;19.51;57.77;101232.38;1628891;87;20128;-74
2022/08/06 03:31:00;;;;;;;;;;;;;;;19.47;57.82;101238.64;1654865;85;20115;-73
2022/08/06 03:33:27;;;;;;;;;;;;;;;19.42;57.88;101241.91;1652798;86;20168;-73
2022/08/06 03:35:55;;;;;;;;;;;;;;;19.44;58.01;101250.11;1614682;87;20649;-72
2022/08/06 03:38:24;;;;;;;;;;;;;;;19.45;57.99;101248.34;1649513;86;20224;-73
2022/08/06 03:40:51;;;;;;;;;;;;;;;19.44;58.15;101257.13;1647721;86;20192;-73
2022/08/06 03:43:17;;;;;;;;;;;;;;;19.43;58.03;101263.30;1617287;87;20232;-73
2022/08/06 03:45:46;;;;;;;;;;;;;;;19.45;58.09;101270.18;1647523;86;20140;-73
2022/08/06 03:48:15;;;;;;;;;;;;;;;19.47;58.09;101277.52;1622064;87;20608;-72
2022/08/06 03:50:43;;;;;;;;;;;;;;;19.46;58.00;101288.08;1652661;85;20131;-73
2022/08/06 03:53:12;;;;;;;;;;;;;;;19.46;58.06;101299.42;1625147;87;20110;-73
2022/08/06 03:55:40;;;;;;;;;;;;;;;19.44;58.02;101305.20;1645187;86;20129;-73
2022/08/06 03:58:09;;;;;;;;;;;;;;;19.46;58.06;101305.98;1655180;86;20125;-73
2022/08/06 04:00:39;;;;;;;;;;;;;;;19.46;58.04;101306.44;1648695;86;20574;-73
2022/08/06 04:03:07;;;;;;;;;;;;;;;19.48;58.13;101310.70;1650150;86;20126;-73
2022/08/06 04:05:34;;;;;;;;;;;;;;;19.48;58.19;101321.20;1622899;87;20599;-73
2022/08/06 04:08:04;;;;;;;;;;;;;;;19.46;58.15;101319.10;1630240;86;20417;-73
2022/08/06 04:10:45;;;;;;;;;;;;;;;19.42;58.07;101316.20;1641696;86;20164;-73
2022/08/06 04:13:13;;;;;;;;;;;;;;;19.38;58.18;101338.23;1645177;85;20600;-72
2022/08/06 04:15:40;;;;;;;;;;;;;;;19.36;58.13;101332.66;1638748;86;20451;-72
2022/08/06 04:18:09;;;;;;;;;;;;;;;19.36;58.25;101330.88;1644600;86;20090;-73
2022/08/06 04:20:36;;;;;;;;;;;;;;;19.40;58.30;101335.09;1649054;86;20529;-73
2022/08/06 04:23:02;;;;;;;;;;;;;;;19.40;58.25;101329.84;1641031;86;20561;-73
2022/08/06 04:25:32;;;;;;;;;;;;;;;19.36;58.25;101334.82;1646664;86;20111;-73
2022/08/06 04:27:59;;;;;;;;;;;;;;;19.32;58.27;101337.17;1652610;86;20558;-73
2022/08/06 04:30:26;;;;;;;;;;;;;;;19.28;58.21;101346.53;1646068;86;20141;-73
2022/08/06 04:32:52;;;;;;;;;;;;;;;19.28;58.28;101352.63;1628668;87;20112;-73
2022/08/06 04:35:19;;;;;;;;;;;;;;;19.28;58.20;101352.63;1612316;87;20114;-73
2022/08/06 04:37:46;;;;;;;;;;;;;;;19.29;58.24;101362.20;1650324;86;20112;-73
2022/08/06 04:40:12;;;;;;;;;;;;;;;19.24;58.03;101356.75;1613225;87;20568;-74
2022/08/06 04:42:39;;;;;;;;;;;;;;;19.18;58.23;101362.66;1636799;86;20534;-73
2022/08/06 04:45:07;;;;;;;;;;;;;;;19.16;58.29;101368.42;1638111;86;20135;-73
2022/08/06 04:47:33;;;;;;;;;;;;;;;19.18;58.29;101378.40;1635912;86;20115;-72
2022/08/06 04:50:00;;;;;;;;;;;;;;;19.16;58.21;101382.84;1643101;85;32548;-73
2022/08/06 04:52:28;;;;;;;;;;;;;;;19.18;58.25;101394.59;1636708;86;20570;-74
2022/08/06 04:54:54;;;;;;;;;;;;;;;19.16;58.12;101393.80;1602922;88;20525;-73
2022/08/06 04:57:20;;;;;;;;;;;;;;;19.10;58.39;101394.03;1634406;86;20518;-73
2022/08/06 04:59:47;;;;;;;;;;;;;;;19.05;58.33;101399.45;1637803;86;20184;-73
2022/08/06 05:02:13;;;;;;;;;;;;;;;19.08;58.14;101407.20;1645627;86;20243;-74
2022/08/06 05:04:40;;;;;;;;;;;;;;;19.07;58.34;101412.50;1649669;86;20116;-74
2022/08/06 05:07:15;;;;;;;;;;;;;;;19.06;58.42;101418.20;1620142;87;20242;-74
2022/08/06 05:09:45;;;;;;;;;;;;;;;19.10;58.44;101426.34;1632613;86;20247;-73
2022/08/06 05:12:18;;;;;;;;;;;;;;;19.09;58.74;101423.33;1633177;86;20220;-73
2022/08/06 05:14:53;;;;;;;;;;;;;;;19.11;58.39;101430.67;1610935;87;20213;-73
2022/08/06 05:17:22;;;;;;;;;;;;;;;19.08;58.40;101429.94;1639337;86;20494;-73
2022/08/06 05:19:52;;;;;;;;;;;;;;;19.05;58.51;101428.74;1638102;86;20494;-74
2022/08/06 05:22:19;;;;;;;;;;;;;;;19.04;58.65;101430.51;1643518;85;20189;-73
2022/08/06 05:24:47;;;;;;;;;;;;;;;19.06;58.59;101434.38;1640824;86;20145;-74
2022/08/06 05:27:14;;;;;;;;;;;;;;;19.09;59.45;101426.41;1640323;86;20107;-73
2022/08/06 05:29:40;;;;;;;;;;;;;;;19.07;58.63;101425.15;1644692;86;20112;-73
2022/08/06 05:32:07;;;;;;;;;;;;;;;19.15;58.69;101426.17;1613790;88;20532;-73
2022/08/06 05:34:33;;;;;;;;;;;;;;;19.22;58.63;101424.16;1638816;86;20498;-73
2022/08/06 05:37:00;;;;;;;;;;;;;;;19.30;58.64;101428.16;1638235;86;20103;-73
2022/08/06 05:39:26;;;;;;;;;;;;;;;19.33;58.64;101433.75;1656302;86;20137;-73
2022/08/06 05:41:52;;;;;;;;;;;;;;;19.34;58.59;101432.38;1640479;86;20167;-73
2022/08/06 05:44:19;;;;;;;;;;;;;;;19.35;58.49;101430.15;1641518;86;20508;-73
2022/08/06 05:46:51;;;;;;;;;;;;;;;19.35;58.45;101430.61;1647171;86;20185;-73
2022/08/06 05:49:24;;;;;;;;;;;;;;;19.35;58.48;101431.92;1638745;86;20133;-73
2022/08/06 05:51:54;;;;;;;;;;;;;;;19.36;58.49;101432.31;1636474;86;20132;-73
2022/08/06 05:54:30;;;;;;;;;;;;;;;19.33;58.55;101428.05;1655421;86;20137;-73
2022/08/06 05:57:00;;;;;;;;;;;;;;;19.34;58.48;101433.69;1603820;88;20150;-73
2022/08/06 05:59:28;;;;;;;;;;;;;;;19.34;58.66;101435.00;1641957;86;20115;-73
2022/08/06 06:01:55;;;;;;;;;;;;;;;19.35;58.68;101441.95;1641279;86;20110;-72
2022/08/06 06:04:23;;;;;;;;;;;;;;;19.34;58.68;101450.73;1618566;87;20216;-75
2022/08/06 06:06:49;;;;;;;;;;;;;;;19.35;58.83;101451.59;1640411;86;20195;-74
2022/08/06 06:09:16;;;;;;;;;;;;;;;19.33;58.76;101455.58;1640652;86;20188;-75
2022/08/06 06:11:43;;;;;;;;;;;;;;;19.34;58.84;101455.98;1642389;86;20192;-74
2022/08/06 06:14:19;;;;;;;;;;;;;;;19.34;58.71;101459.06;1605072;88;20224;-74
2022/08/06 06:17:07;;;;;;;;;;;;;;;19.30;58.80;101460.09;1618115;87;20206;-74
2022/08/06 06:19:49;;;;;;;;;;;;;;;19.34;58.75;101461.69;1618644;87;20502;-74
2022/08/06 06:22:25;;;;;;;;;;;;;;;19.39;58.76;101467.14;1617102;87;20235;-74
2022/08/06 06:25:07;;;;;;;;;;;;;;;19.38;58.65;101470.69;1614516;86;20203;-74
2022/08/06 06:27:39;;;;;;;;;;;;;;;19.42;58.73;101472.73;1625316;87;20240;-74
2022/08/06 06:30:09;;;;;;;;;;;;;;;19.43;58.76;101477.06;1620555;87;20205;-75
2022/08/06 06:33:01;;;;;;;;;;;;;;;19.45;58.83;101480.03;1639444;85;20199;-75
2022/08/06 06:35:43;;;;;;;;;;;;;;;19.51;58.81;101481.59;1644869;85;20187;-74
2022/08/06 06:38:24;;;;;;;;;;;;;;;19.53;58.57;101480.22;1650052;85;20151;-75
2022/08/06 06:41:09;;;;;;;;;;;;;;;19.54;58.58;101495.90;1608286;87;20158;-75
2022/08/06 06:43:54;;;;;;;;;;;;;;;19.56;58.71;101502.40;1648745;85;20166;-75
2022/08/06 06:46:39;;;;;;;;;;;;;;;19.55;58.58;101502.85;1650211;85;20115;-75
2022/08/06 06:49:17;;;;;;;;;;;;;;;19.52;58.68;101506.05;1650436;85;20131;-75
2022/08/06 06:51:50;;;;;;;;;;;;;;;19.52;58.54;101504.28;1650258;85;20099;-73
2022/08/06 06:54:22;;;;;;;;;;;;;;;19.56;58.74;101503.70;1649421;85;20119;-73
2022/08/06 06:56:50;;;;;;;;;;;;;;;19.58;58.58;101509.75;1651065;85;20199;-74
2022/08/06 06:59:38;;;;;;;;;;;;;;;19.57;58.63;101510.66;1649353;85;20212;-73
2022/08/06 07:02:06;;;;;;;;;;;;;;;19.60;58.69;101507.92;1651244;85;20214;-74
2022/08/06 07:04:34;;;;;;;;;;;;;;;19.64;58.65;101516.92;1657130;85;20120;-74
2022/08/06 07:07:02;;;;;;;;;;;;;;;19.71;58.71;101510.52;1626095;87;20136;-73
2022/08/06 07:09:33;;;;;;;;;;;;;;;19.72;58.50;101524.05;1618635;87;20108;-73
2022/08/06 07:12:00;;;;;;;;;;;;;;;19.73;58.82;101520.96;1620801;86;20099;-73
2022/08/06 07:14:28;;;;;;;;;;;;;;;19.71;58.58;101522.79;1618580;87;20140;-74
2022/08/06 07:16:55;;;;;;;;;;;;;;;19.66;58.52;101528.67;1619022;87;20104;-76
2022/08/06 07:19:23;;;;;;;;;;;;;;;19.64;58.48;101529.19;1620195;87;20148;-76
2022/08/06 07:21:50;;;;;;;;;;;;;;;19.64;58.54;101524.80;1627097;87;20120;-75
2022/08/06 07:24:17;;;;;;;;;;;;;;;19.71;58.58;101528.04;1629678;85;20195;-76
2022/08/06 07:26:45;;;;;;;;;;;;;;;19.78;58.62;101534.27;1622148;87;20210;-76
2022/08/06 07:29:16;;;;;;;;;;;;;;;19.90;58.56;101529.45;1621675;87;20248;-76
2022/08/06 07:31:42;;;;;;;;;;;;;;;20.01;58.30;101539.06;1623204;86;20375;-76
2022/08/06 07:34:09;;;;;;;;;;;;;;;20.06;58.37;101534.48;1647830;85;20217;-76
2022/08/06 07:36:41;;;;;;;;;;;;;;;20.16;58.43;101541.06;1646874;85;20210;-76
2022/08/06 07:39:11;;;;;;;;;;;;;;;20.29;58.33;101547.95;1619316;87;20490;-76
2022/08/06 07:41:38;;;;;;;;;;;;;;;20.46;58.31;101550.77;1626559;86;20420;-75
2022/08/06 07:44:06;;;;;;;;;;;;;;;20.56;58.18;101556.02;1623434;86;20136;-76
2022/08/06 07:46:35;;;;;;;;;;;;;;;20.64;58.12;101557.88;1623632;85;20096;-76
2022/08/06 07:49:06;;;;;;;;;;;;;;;20.73;58.19;101557.94;1632099;86;20110;-76
2022/08/06 07:51:34;;;;;;;;;;;;;;;20.89;58.25;101556.31;1623963;86;20204;-76
2022/08/06 07:54:02;;;;;;;;;;;;;;;21.05;58.04;101562.61;1623000;87;20202;-75
2022/08/06 07:56:28;;;;;;;;;;;;;;;21.13;57.91;101562.27;1633905;86;20190;-75
2022/08/06 07:58:55;;;;;;;;;;;;;;;21.15;57.65;101564.38;1634139;87;20158;-75
2022/08/06 08:01:23;;;;;;;;;;;;;;;21.22;57.99;101568.94;1632949;87;20126;-75
2022/08/06 08:06:34;;;;;;;;;;;;;;;21.91;57.63;101566.53;1599604;88;20195;-75
2022/08/06 08:09:15;;;;;;;;;;;;;;;22.09;57.46;101570.48;1593861;88;20140;-75
2022/08/06 08:11:43;;;;;;;;;;;;;;;22.13;57.28;101564.59;1625185;86;20160;-75
2022/08/06 08:14:10;;;;;;;;;;;;;;;22.22;57.35;101575.14;1625461;87;20171;-75
2022/08/06 08:16:37;;;;;;;;;;;;;;;22.27;57.14;101577.95;1622272;87;20135;-75
2022/08/06 08:19:22;;;;;;;;;;;;;;;22.20;56.63;101587.08;1626955;85;20160;-76
2022/08/06 08:21:50;;;;;;;;;;;;;;;22.15;56.89;101594.35;1658676;85;20140;-75
2022/08/06 08:24:16;;;;;;;;;;;;;;;22.16;56.75;101584.20;1642817;85;20107;-75
2022/08/06 08:26:42;;;;;;;;;;;;;;;22.17;56.79;101589.86;1650218;85;20702;-75
2022/08/06 08:29:09;;;;;;;;;;;;;;;22.20;56.80;101598.94;1651858;85;20639;-75
2022/08/06 08:31:36;;;;;;;;;;;;;;;22.29;56.81;101602.44;1646811;85;20939;-75
2022/08/06 08:34:02;;;;;;;;;;;;;;;22.34;56.59;101601.75;1623810;87;20112;-75
2022/08/06 08:36:28;;;;;;;;;;;;;;;22.47;56.77;101596.70;1619724;86;20142;-75
2022/08/06 08:38:59;;;;;;;;;;;;;;;22.71;56.63;101595.92;1623461;87;20129;-75
2022/08/06 08:41:26;;;;;;;;;;;;;;;22.91;56.19;101600.18;1574664;89;20147;-75
2022/08/06 08:44:03;;;;;;;;;;;;;;;23.09;56.25;101605.82;1574506;89;20178;-75
2022/08/06 08:46:34;;;;;;;;;;;;;;;23.17;56.10;101606.27;1581616;88;20124;-77
2022/08/06 08:49:02;;;;;;;;;;;;;;;23.32;55.88;101604.61;1585912;88;20107;-77
2022/08/06 08:51:32;;;;;;;;;;;;;;;23.35;55.81;101603.13;1589279;88;20431;-74
2022/08/06 08:54:00;;;;;;;;;;;;;;;23.32;55.65;101610.74;1583161;88;20113;-73
2022/08/06 08:56:26;;;;;;;;;;;;;;;23.17;55.47;101602.78;1585049;88;20112;-74
2022/08/06 08:58:53;;;;;;;;;;;;;;;23.04;55.42;101611.34;1587757;88;20196;-74
2022/08/06 09:01:19;;;;;;;;;;;;;;;22.97;55.42;101613.91;1590102;88;20199;-74
2022/08/06 09:03:47;;;;;;;;;;;;;;;22.98;55.63;101616.94;1581869;88;20212;-74
2022/08/06 09:06:13;;;;;;;;;;;;;;;23.04;55.40;101610.48;1583307;89;20294;-74
2022/08/06 09:08:40;;;;;;;;;;;;;;;23.02;55.17;101607.92;1581903;88;20187;-74
2022/08/06 09:11:06;;;;;;;;;;;;;;;23.03;55.26;101607.46;1582614;88;20224;-74
2022/08/06 09:13:33;;;;;;;;;;;;;;;23.11;55.25;101603.95;1590448;88;20219;-74
2022/08/06 09:16:05;;;;;;;;;;;;;;;23.13;54.95;101602.55;1605305;87;20217;-74
2022/08/06 09:18:31;;;;;;;;;;;;;;;23.14;54.71;101601.16;1611355;87;20223;-74
2022/08/06 09:21:00;;;;;;;;;;;;;;;23.17;54.59;101609.37;1585554;88;20211;-74
2022/08/06 09:23:26;;;;;;;;;;;;;;;23.17;54.42;101614.66;1588237;88;20149;-74
2022/08/06 09:25:53;;;;;;;;;;;;;;;23.19;54.59;101614.11;1648033;86;20128;-74
2022/08/06 09:28:31;;;;;;;;;;;;;;;23.21;54.40;101611.78;1610751;87;20110;-74
2022/08/06 09:31:10;;;;;;;;;;;;;;;23.12;54.17;101604.34;1563539;89;20116;-74
2022/08/06 09:33:38;;;;;;;;;;;;;;;23.23;54.44;101609.06;1638844;85;20777;-73
2022/08/06 09:36:10;;;;;;;;;;;;;;;23.30;54.16;101607.80;1642850;85;20129;-74
2022/08/06 09:38:53;;;;;;;;;;;;;;;23.40;53.74;101604.55;1620148;87;20148;-74
2022/08/06 09:41:21;;;;;;;;;;;;;;;23.44;53.91;101613.16;1588800;89;20135;-74
2022/08/06 09:43:48;;;;;;;;;;;;;;;23.36;53.22;101614.07;1610667;87;20139;-74
2022/08/06 09:46:16;;;;;;;;;;;;;;;23.31;53.10;101615.63;1632385;86;20203;-74
2022/08/06 09:48:58;;;;;;;;;;;;;;;23.29;53.17;101621.92;1640067;86;20144;-74
2022/08/06 09:51:24;;;;;;;;;;;;;;;23.32;53.23;101620.45;1631523;86;20178;-74
2022/08/06 09:53:55;;;;;;;;;;;;;;;23.31;53.25;101627.98;1633380;86;20099;-74
2022/08/06 09:56:21;;;;;;;;;;;;;;;23.33;53.18;101629.60;1609175;87;20458;-75
2022/08/06 09:58:48;;;;;;;;;;;;;;;23.30;52.89;101627.13;1634168;86;20371;-75
2022/08/06 10:01:16;;;;;;;;;;;;;;;23.24;52.80;101635.83;1629641;86;20104;-75
2022/08/06 10:03:42;;;;;;;;;;;;;;;23.26;52.89;101639.25;1613940;87;20109;-75
2022/08/06 10:06:11;;;;;;;;;;;;;;;23.35;52.78;101627.73;1610767;87;20160;-74
2022/08/06 10:08:38;;;;;;;;;;;;;;;23.44;52.40;101625.89;1609954;87;20394;-74
2022/08/06 10:11:04;;;;;;;;;;;;;;;23.35;52.37;101629.52;1616231;87;20406;-75
2022/08/06 10:13:31;;;;;;;;;;;;;;;23.37;52.35;101634.25;1612902;87;20099;-75
2022/08/06 10:16:00;;;;;;;;;;;;;;;23.43;52.42;101643.14;1595635;87;20166;-75
2022/08/06 10:18:38;;;;;;;;;;;;;;;23.45;52.30;101645.23;1609599;87;20124;-75
2022/08/06 10:21:07;;;;;;;;;;;;;;;23.50;52.19;101640.55;1580746;89;20116;-75
2022/08/06 10:23:35;;;;;;;;;;;;;;;23.49;51.99;101641.48;1627914;86;20112;-74
2022/08/06 10:26:06;;;;;;;;;;;;;;;23.53;51.31;101643.06;1636656;86;20140;-75
2022/08/06 10:28:35;;;;;;;;;;;;;;;23.52;51.54;101650.56;1639079;86;20096;-74
2022/08/06 10:31:06;;;;;;;;;;;;;;;23.53;51.63;101652.30;1630164;86;20826;-75
2022/08/06 10:33:36;;;;;;;;;;;;;;;23.51;50.76;101642.26;1649062;85;20575;-75
2022/08/06 10:36:11;;;;;;;;;;;;;;;23.50;50.63;101651.11;1654921;85;20561;-75
2022/08/06 10:38:38;;;;;;;;;;;;;;;23.50;50.80;101648.94;1655094;85;20098;-75
2022/08/06 10:41:10;;;;;;;;;;;;;;;23.56;50.82;101646.01;1648489;85;20511;-75
2022/08/06 10:43:37;;;;;;;;;;;;;;;23.63;50.17;101644.27;1651574;85;20168;-75
2022/08/06 10:46:09;;;;;;;;;;;;;;;23.71;50.71;101650.00;1654142;85;20244;-75
2022/08/06 10:48:36;;;;;;;;;;;;;;;23.78;50.21;101653.16;1614554;87;20205;-75
2022/08/06 10:51:04;;;;;;;;;;;;;;;23.79;50.24;101648.26;1617908;87;20214;-74
2022/08/06 10:53:31;;;;;;;;;;;;;;;23.81;50.54;101654.31;1616720;87;20292;-74
2022/08/06 10:56:00;;;;;;;;;;;;;;;23.64;50.25;101656.55;1617410;87;20239;-74
2022/08/06 10:58:26;;;;;;;;;;;;;;;23.47;49.50;101658.34;1621510;85;20208;-74
2022/08/06 11:00:52;;;;;;;;;;;;;;;23.34;49.65;101647.61;1631638;86;20389;-76
2022/08/06 11:03:40;;;;;;;;;;;;;;;23.30;49.67;101642.11;1627251;85;20650;-76
2022/08/06 11:06:27;;;;;;;;;;;;;;;23.35;49.46;101642.72;1648283;85;20473;-76
2022/08/06 11:09:13;;;;;;;;;;;;;;;23.36;48.36;101641.32;1657017;85;20858;-76
2022/08/06 11:11:56;;;;;;;;;;;;;;;23.36;49.17;101649.70;1655408;85;20190;-76
2022/08/06 11:14:23;;;;;;;;;;;;;;;23.42;48.82;101644.92;1661382;85;20193;-77
2022/08/06 11:16:58;;;;;;;;;;;;;;;23.53;48.72;101650.09;1649600;85;20242;-76
2022/08/06 11:19:43;;;;;;;;;;;;;;;23.60;48.96;101651.52;1646129;85;20183;-76
2022/08/06 11:22:29;;;;;;;;;;;;;;;23.68;48.27;101649.31;1647385;85;20596;-76
2022/08/06 11:24:55;;;;;;;;;;;;;;;23.65;48.53;101650.80;1656362;85;20160;-76
2022/08/06 11:27:50;;;;;;;;;;;;;;;23.58;48.22;101652.91;1656159;85;20460;-77
2022/08/06 11:30:16;;;;;;;;;;;;;;;23.48;48.31;101654.30;1645892;85;20258;-77
2022/08/06 11:32:48;;;;;;;;;;;;;;;23.32;48.29;101649.02;1641813;85;20189;-77
2022/08/06 11:35:34;;;;;;;;;;;;;;;23.25;48.04;101647.63;1591323;88;20262;-77
2022/08/06 11:38:05;;;;;;;;;;;;;;;23.28;47.95;101643.51;1602531;87;20542;-77
2022/08/06 11:40:59;;;;;;;;;;;;;;;23.37;47.96;101639.06;1615722;87;20933;-77
2022/08/06 11:43:44;;;;;;;;;;;;;;;23.43;47.55;101643.98;1597885;87;20145;-77
2022/08/06 11:46:40;;;;;;;;;;;;;;;23.51;47.65;101642.26;1589955;88;20261;-76
2022/08/06 11:49:16;;;;;;;;;;;;;;;23.57;47.04;101640.64;1594529;88;20484;-77
2022/08/06 11:51:45;;;;;;;;;;;;;;;23.74;47.34;101641.05;1603820;87;20300;-76
2022/08/06 11:54:30;;;;;;;;;;;;;;;23.85;47.12;101642.64;1590688;88;20532;-76
2022/08/06 11:57:09;;;;;;;;;;;;;;;23.92;46.99;101637.37;1561433;90;20214;-76
2022/08/06 11:59:45;;;;;;;;;;;;;;;24.00;46.64;101639.12;1580183;89;20531;-76
2022/08/06 12:02:14;;;;;;;;;;;;;;;24.16;46.72;101638.27;1578752;89;20491;-76
2022/08/06 12:04:42;;;;;;;;;;;;;;;24.31;46.52;101629.03;1600918;88;20562;-76
2022/08/06 12:07:34;;;;;;;;;;;;;;;24.43;46.47;101628.29;1587158;88;20170;-78
2022/08/06 12:10:13;;;;;;;;;;;;;;;24.55;46.41;101636.45;1563408;90;20442;-77
2022/08/06 12:12:45;;;;;;;;;;;;;;;24.61;46.10;101641.39;1591389;87;20121;-77
2022/08/06 12:15:15;;;;;;;;;;;;;;;24.65;45.97;101642.44;1618708;87;20568;-77
2022/08/06 12:17:57;;;;;;;;;;;;;;;24.64;46.10;101648.67;1605279;87;20456;-77
2022/08/06 12:20:36;;;;;;;;;;;;;;;24.52;45.77;101649.39;1615024;87;20421;-77
2022/08/06 12:23:04;;;;;;;;;;;;;;;24.50;46.07;101650.41;1623195;87;20447;-77
2022/08/06 12:25:35;;;;;;;;;;;;;;;24.48;44.98;101640.39;1617038;87;20134;-77
2022/08/06 12:28:07;;;;;;;;;;;;;;;24.47;45.42;101643.51;1616323;87;20293;-77
2022/08/06 12:30:48;;;;;;;;;;;;;;;24.46;45.08;101652.38;1614155;87;20476;-76
2022/08/06 12:33:14;;;;;;;;;;;;;;;24.35;45.11;101653.50;1619936;85;20254;-76
2022/08/06 12:35:56;;;;;;;;;;;;;;;24.20;44.56;101649.90;1649668;85;20696;-76
2022/08/06 12:38:29;;;;;;;;;;;;;;;24.08;44.95;101651.91;1613343;87;20114;-76
2022/08/06 12:40:59;;;;;;;;;;;;;;;24.02;45.06;101658.38;1597669;88;20443;-77
2022/08/06 12:43:26;;;;;;;;;;;;;;;23.97;44.95;101655.61;1625033;87;20412;-77
2022/08/06 12:45:59;;;;;;;;;;;;;;;23.91;44.83;101646.73;1590971;89;20146;-77
2022/08/06 12:48:25;;;;;;;;;;;;;;;23.89;44.47;101645.50;1594270;88;20161;-77
2022/08/06 12:51:09;;;;;;;;;;;;;;;23.90;44.16;101638.42;1589498;88;20251;-77
2022/08/06 12:53:41;;;;;;;;;;;;;;;23.93;44.27;101627.19;1586752;89;20443;-77
2022/08/06 12:56:07;;;;;;;;;;;;;;;24.02;44.68;101636.39;1610718;87;20430;-76